sensor_id;sensor_type;location;lat;lon;timestamp;temperature;humidity
9466;DHT22;4771;48.726;9.006;2022-10-31T00:01:54;12.10;99.90
9466;DHT22;4771;48.726;9.006;2022-10-31T00:04:21;12.10;99.90
9466;DHT22;4771;48.726;9.006;2022-10-31T00:06:48;12.10;99.90
9466;DHT22;4771;48.726;9.006;2022-10-31T00:09:15;12.10;99.90
9466;DHT22;4771;48.726;9.006;2022-10-31T00:11:41;12.10;99.90
9466;DHT22;4771;48.726;9.006;2022-10-31T00:14:08;12.10;99.90
9466;DHT22;4771;48.726;9.006;2022-10-31T00:16:37;12.10;99.90
9466;DHT22;4771;48.726;9.006;2022-10-31T00:19:06;12.10;99.90
9466;DHT22;4771;48.726;9.006;2022-10-31T00:21:33;12.10;99.90
9466;DHT22;4771;48.726;9.006;2022-10-31T00:24:01;12.10;99.90
9466;DHT22;4771;48.726;9.006;2022-10-31T00:26:28;12.00;99.90
9466;DHT22;4771;48.726;9.006;2022-10-31T00:28:56;12.00;99.90
9466;DHT22;4771;48.726;9.006;2022-10-31T00:31:23;12.00;99.90
9466;DHT22;4771;48.726;9.006;2022-10-31T00:33:51;12.00;99.90
9466;DHT22;4771;48.726;9.006;2022-10-31T00:36:19;12.00;99.90
9466;DHT22;4771;48.726;9.006;2022-10-31T00:38:47;12.00;99.90
9466;DHT22;4771;48.726;9.006;2022-10-31T00:41:16;11.90;99.90
9466;DHT22;4771;48.726;9.006;2022-10-31T00:43:44;11.90;99.90
9466;DHT22;4771;48.726;9.006;2022-10-31T00:46:11;11.90;99.90
9466;DHT22;4771;48.726;9.006;2022-10-31T00:48:39;12.00;99.90
9466;DHT22;4771;48.726;9.006;2022-10-31T00:51:08;11.90;99.90
9466;DHT22;4771;48.726;9.006;2022-10-31T00:53:35;11.90;99.90
9466;DHT22;4771;48.726;9.006;2022-10-31T00:56:02;11.90;99.90
9466;DHT22;4771;48.726;9.006;2022-10-31T00:58:30;11.90;99.90
9466;DHT22;4771;48.726;9.006;2022-10-31T01:00:57;11.90;99.90
9466;DHT22;4771;48.726;9.006;2022-10-31T01:03:25;11.90;99.90
9466;DHT22;4771;48.726;9.006;2022-10-31T01:05:59;11.90;99.90
9466;DHT22;4771;48.726;9.006;2022-10-31T01:08:28;11.90;99.90
9466;DHT22;4771;48.726;9.006;2022-10-31T01:11:01;11.80;99.90
9466;DHT22;4771;48.726;9.006;2022-10-31T01:13:28;11.80;99.90
9466;DHT22;4771;48.726;9.006;2022-10-31T01:15:56;11.70;99.90
9466;DHT22;4771;48.726;9.006;2022-10-31T01:18:24;11.70;99.90
9466;DHT22;4771;48.726;9.006;2022-10-31T01:20:59;11.70;99.90
9466;DHT22;4771;48.726;9.006;2022-10-31T01:23:28;11.80;99.90
9466;DHT22;4771;48.726;9.006;2022-10-31T01:26:03;11.60;99.90
9466;DHT22;4771;48.726;9.006;2022-10-31T01:28:31;11.60;99.90
9466;DHT22;4771;48.726;9.006;2022-10-31T01:31:00;11.60;99.90
9466;DHT22;4771;48.726;9.006;2022-10-31T01:33:27;11.70;99.90
9466;DHT22;4771;48.726;9.006;2022-10-31T01:35:54;11.70;99.90
9466;DHT22;4771;48.726;9.006;2022-10-31T01:38:21;11.70;99.90
9466;DHT22;4771;48.726;9.006;2022-10-31T01:40:50;11.60;99.90
9466;DHT22;4771;48.726;9.006;2022-10-31T01:43:17;11.70;99.90
9466;DHT22;4771;48.726;9.006;2022-10-31T01:45:48;11.70;99.90
9466;DHT22;4771;48.726;9.006;2022-10-31T01:48:20;11.70;99.90
9466;DHT22;4771;48.726;9.006;2022-10-31T01:50:52;11.70;99.90
9466;DHT22;4771;48.726;9.006;2022-10-31T01:53:20;11.70;99.90
9466;DHT22;4771;48.726;9.006;2022-10-31T01:55:49;11.80;99.90
9466;DHT22;4771;48.726;9.006;2022-10-31T01:58:25;11.80;99.90
9466;DHT22;4771;48.726;9.006;2022-10-31T02:00:57;11.80;99.90
9466;DHT22;4771;48.726;9.006;2022-10-31T02:03:25;11.60;99.90
9466;DHT22;4771;48.726;9.006;2022-10-31T02:05:54;11.60;99.90
9466;DHT22;4771;48.726;9.006;2022-10-31T02:08:26;11.60;99.90
9466;DHT22;4771;48.726;9.006;2022-10-31T02:10:56;11.60;99.90
9466;DHT22;4771;48.726;9.006;2022-10-31T02:13:24;11.70;99.90
9466;DHT22;4771;48.726;9.006;2022-10-31T02:15:53;11.70;99.90
9466;DHT22;4771;48.726;9.006;2022-10-31T02:18:22;11.70;99.90
9466;DHT22;4771;48.726;9.006;2022-10-31T02:20:57;11.60;99.90
9466;DHT22;4771;48.726;9.006;2022-10-31T02:23:53;11.70;99.90
9466;DHT22;4771;48.726;9.006;2022-10-31T02:27:03;11.70;99.90
9466;DHT22;4771;48.726;9.006;2022-10-31T02:29:54;11.60;99.90
9466;DHT22;4771;48.726;9.006;2022-10-31T02:32:27;11.60;99.90
9466;DHT22;4771;48.726;9.006;2022-10-31T02:34:59;11.60;99.90
9466;DHT22;4771;48.726;9.006;2022-10-31T02:37:36;11.40;99.90
9466;DHT22;4771;48.726;9.006;2022-10-31T02:40:10;11.50;99.90
9466;DHT22;4771;48.726;9.006;2022-10-31T02:42:46;11.40;99.90
9466;DHT22;4771;48.726;9.006;2022-10-31T02:45:21;11.40;99.90
9466;DHT22;4771;48.726;9.006;2022-10-31T02:47:54;11.30;99.90
9466;DHT22;4771;48.726;9.006;2022-10-31T02:50:28;11.50;99.90
9466;DHT22;4771;48.726;9.006;2022-10-31T02:52:55;11.40;99.90
9466;DHT22;4771;48.726;9.006;2022-10-31T02:58:37;11.40;99.90
9466;DHT22;4771;48.726;9.006;2022-10-31T03:04:20;11.30;99.90
9466;DHT22;4771;48.726;9.006;2022-10-31T03:06:54;11.30;99.90
9466;DHT22;4771;48.726;9.006;2022-10-31T03:09:25;11.30;99.90
9466;DHT22;4771;48.726;9.006;2022-10-31T03:11:58;11.30;99.90
9466;DHT22;4771;48.726;9.006;2022-10-31T03:14:33;11.20;99.90
9466;DHT22;4771;48.726;9.006;2022-10-31T03:17:06;11.20;99.90
9466;DHT22;4771;48.726;9.006;2022-10-31T03:19:39;11.20;99.90
9466;DHT22;4771;48.726;9.006;2022-10-31T03:22:12;11.20;99.90
9466;DHT22;4771;48.726;9.006;2022-10-31T03:24:43;11.20;99.90
9466;DHT22;4771;48.726;9.006;2022-10-31T03:27:12;11.20;99.90
9466;DHT22;4771;48.726;9.006;2022-10-31T03:29:40;11.20;99.90
9466;DHT22;4771;48.726;9.006;2022-10-31T03:32:13;11.20;99.90
9466;DHT22;4771;48.726;9.006;2022-10-31T03:34:44;11.20;99.90
9466;DHT22;4771;48.726;9.006;2022-10-31T03:37:14;11.20;99.90
9466;DHT22;4771;48.726;9.006;2022-10-31T03:39:43;11.20;99.90
9466;DHT22;4771;48.726;9.006;2022-10-31T03:42:14;11.10;99.90
9466;DHT22;4771;48.726;9.006;2022-10-31T03:44:44;11.10;99.90
9466;DHT22;4771;48.726;9.006;2022-10-31T03:47:13;11.00;99.90
9466;DHT22;4771;48.726;9.006;2022-10-31T03:49:40;11.00;99.90
9466;DHT22;4771;48.726;9.006;2022-10-31T03:52:15;11.00;99.90
9466;DHT22;4771;48.726;9.006;2022-10-31T03:54:46;11.00;99.90
9466;DHT22;4771;48.726;9.006;2022-10-31T03:57:20;11.00;99.90
9466;DHT22;4771;48.726;9.006;2022-10-31T03:59:52;11.00;99.90
9466;DHT22;4771;48.726;9.006;2022-10-31T04:02:22;11.00;99.90
9466;DHT22;4771;48.726;9.006;2022-10-31T04:04:51;10.90;99.90
9466;DHT22;4771;48.726;9.006;2022-10-31T04:07:21;10.90;99.90
9466;DHT22;4771;48.726;9.006;2022-10-31T04:09:50;10.90;99.90
9466;DHT22;4771;48.726;9.006;2022-10-31T04:12:18;10.90;99.90
9466;DHT22;4771;48.726;9.006;2022-10-31T04:14:47;10.80;99.90
9466;DHT22;4771;48.726;9.006;2022-10-31T04:17:18;10.90;99.90
9466;DHT22;4771;48.726;9.006;2022-10-31T04:19:45;10.90;99.90
9466;DHT22;4771;48.726;9.006;2022-10-31T04:22:13;10.90;99.90
9466;DHT22;4771;48.726;9.006;2022-10-31T04:24:41;10.80;99.90
9466;DHT22;4771;48.726;9.006;2022-10-31T04:27:08;10.80;99.90
9466;DHT22;4771;48.726;9.006;2022-10-31T04:29:35;10.80;99.90
9466;DHT22;4771;48.726;9.006;2022-10-31T04:32:02;10.80;99.90
9466;DHT22;4771;48.726;9.006;2022-10-31T04:34:29;10.70;99.90
9466;DHT22;4771;48.726;9.006;2022-10-31T04:36:56;10.70;99.90
9466;DHT22;4771;48.726;9.006;2022-10-31T04:39:23;10.80;99.90
9466;DHT22;4771;48.726;9.006;2022-10-31T04:41:51;10.70;99.90
9466;DHT22;4771;48.726;9.006;2022-10-31T04:44:18;10.70;99.90
9466;DHT22;4771;48.726;9.006;2022-10-31T04:46:45;10.70;99.90
9466;DHT22;4771;48.726;9.006;2022-10-31T04:49:12;10.70;99.90
9466;DHT22;4771;48.726;9.006;2022-10-31T04:51:39;10.70;99.90
9466;DHT22;4771;48.726;9.006;2022-10-31T04:54:06;10.70;99.90
9466;DHT22;4771;48.726;9.006;2022-10-31T04:56:33;10.60;99.90
9466;DHT22;4771;48.726;9.006;2022-10-31T04:59:02;10.60;99.90
9466;DHT22;4771;48.726;9.006;2022-10-31T05:01:29;10.60;99.90
9466;DHT22;4771;48.726;9.006;2022-10-31T05:03:56;10.60;99.90
9466;DHT22;4771;48.726;9.006;2022-10-31T05:06:22;10.70;99.90
9466;DHT22;4771;48.726;9.006;2022-10-31T05:08:49;10.70;99.90
9466;DHT22;4771;48.726;9.006;2022-10-31T05:11:16;10.70;99.90
9466;DHT22;4771;48.726;9.006;2022-10-31T05:13:43;10.60;99.90
9466;DHT22;4771;48.726;9.006;2022-10-31T05:16:11;10.70;99.90
9466;DHT22;4771;48.726;9.006;2022-10-31T05:18:38;10.60;99.90
9466;DHT22;4771;48.726;9.006;2022-10-31T05:21:05;10.50;99.90
9466;DHT22;4771;48.726;9.006;2022-10-31T05:23:32;10.50;99.90
9466;DHT22;4771;48.726;9.006;2022-10-31T05:25:59;10.50;99.90
9466;DHT22;4771;48.726;9.006;2022-10-31T05:28:26;10.50;99.90
9466;DHT22;4771;48.726;9.006;2022-10-31T05:30:53;10.50;99.90
9466;DHT22;4771;48.726;9.006;2022-10-31T05:33:21;10.40;99.90
9466;DHT22;4771;48.726;9.006;2022-10-31T05:35:48;10.40;99.90
9466;DHT22;4771;48.726;9.006;2022-10-31T05:38:15;10.40;99.90
9466;DHT22;4771;48.726;9.006;2022-10-31T05:40:42;10.40;99.90
9466;DHT22;4771;48.726;9.006;2022-10-31T05:43:10;10.40;99.90
9466;DHT22;4771;48.726;9.006;2022-10-31T05:45:37;10.40;99.90
9466;DHT22;4771;48.726;9.006;2022-10-31T05:48:05;10.40;99.90
9466;DHT22;4771;48.726;9.006;2022-10-31T05:50:33;10.30;99.90
9466;DHT22;4771;48.726;9.006;2022-10-31T05:53:01;10.30;99.90
9466;DHT22;4771;48.726;9.006;2022-10-31T05:55:29;10.30;99.90
9466;DHT22;4771;48.726;9.006;2022-10-31T05:57:56;10.20;99.90
9466;DHT22;4771;48.726;9.006;2022-10-31T06:00:25;10.20;99.90
9466;DHT22;4771;48.726;9.006;2022-10-31T06:02:58;10.20;99.90
9466;DHT22;4771;48.726;9.006;2022-10-31T06:05:25;10.10;99.90
9466;DHT22;4771;48.726;9.006;2022-10-31T06:07:53;10.10;99.90
9466;DHT22;4771;48.726;9.006;2022-10-31T06:10:20;10.10;99.90
9466;DHT22;4771;48.726;9.006;2022-10-31T06:12:48;10.10;99.90
9466;DHT22;4771;48.726;9.006;2022-10-31T06:15:15;10.10;99.90
9466;DHT22;4771;48.726;9.006;2022-10-31T06:17:42;10.10;99.90
9466;DHT22;4771;48.726;9.006;2022-10-31T06:20:10;10.10;99.90
9466;DHT22;4771;48.726;9.006;2022-10-31T06:22:37;10.10;99.90
9466;DHT22;4771;48.726;9.006;2022-10-31T06:25:06;10.10;99.90
9466;DHT22;4771;48.726;9.006;2022-10-31T06:27:33;10.10;99.90
9466;DHT22;4771;48.726;9.006;2022-10-31T06:30:00;10.20;99.90
9466;DHT22;4771;48.726;9.006;2022-10-31T06:32:27;10.20;99.90
9466;DHT22;4771;48.726;9.006;2022-10-31T06:34:55;10.30;99.90
9466;DHT22;4771;48.726;9.006;2022-10-31T06:37:22;10.30;99.90
9466;DHT22;4771;48.726;9.006;2022-10-31T06:39:49;10.30;99.90
9466;DHT22;4771;48.726;9.006;2022-10-31T06:42:17;10.30;99.90
9466;DHT22;4771;48.726;9.006;2022-10-31T06:44:44;10.40;99.90
9466;DHT22;4771;48.726;9.006;2022-10-31T06:47:11;10.40;99.90
9466;DHT22;4771;48.726;9.006;2022-10-31T06:49:38;10.40;99.90
9466;DHT22;4771;48.726;9.006;2022-10-31T06:52:05;10.50;99.90
9466;DHT22;4771;48.726;9.006;2022-10-31T06:54:32;10.60;99.90
9466;DHT22;4771;48.726;9.006;2022-10-31T06:56:58;10.70;99.90
9466;DHT22;4771;48.726;9.006;2022-10-31T06:59:27;10.70;99.90
9466;DHT22;4771;48.726;9.006;2022-10-31T07:01:54;10.80;99.90
9466;DHT22;4771;48.726;9.006;2022-10-31T07:04:21;10.80;99.90
9466;DHT22;4771;48.726;9.006;2022-10-31T07:06:50;10.90;99.90
9466;DHT22;4771;48.726;9.006;2022-10-31T07:09:17;10.90;99.90
9466;DHT22;4771;48.726;9.006;2022-10-31T07:11:44;10.90;99.90
9466;DHT22;4771;48.726;9.006;2022-10-31T07:14:11;11.00;99.90
9466;DHT22;4771;48.726;9.006;2022-10-31T07:16:39;11.10;99.90
9466;DHT22;4771;48.726;9.006;2022-10-31T07:19:06;11.10;99.90
9466;DHT22;4771;48.726;9.006;2022-10-31T07:21:33;11.30;99.90
9466;DHT22;4771;48.726;9.006;2022-10-31T07:24:00;11.30;99.90
9466;DHT22;4771;48.726;9.006;2022-10-31T07:26:27;11.40;99.90
9466;DHT22;4771;48.726;9.006;2022-10-31T07:28:54;11.50;99.90
9466;DHT22;4771;48.726;9.006;2022-10-31T07:31:21;11.60;99.90
9466;DHT22;4771;48.726;9.006;2022-10-31T07:33:50;11.70;99.90
9466;DHT22;4771;48.726;9.006;2022-10-31T07:36:17;11.80;99.90
9466;DHT22;4771;48.726;9.006;2022-10-31T07:38:44;11.90;99.90
9466;DHT22;4771;48.726;9.006;2022-10-31T07:41:11;12.00;99.90
9466;DHT22;4771;48.726;9.006;2022-10-31T07:43:38;12.10;99.90
9466;DHT22;4771;48.726;9.006;2022-10-31T07:46:05;12.20;99.90
9466;DHT22;4771;48.726;9.006;2022-10-31T07:48:32;12.30;99.90
9466;DHT22;4771;48.726;9.006;2022-10-31T07:51:00;12.40;99.90
9466;DHT22;4771;48.726;9.006;2022-10-31T07:53:27;12.50;99.90
9466;DHT22;4771;48.726;9.006;2022-10-31T07:55:54;12.70;99.90
9466;DHT22;4771;48.726;9.006;2022-10-31T07:58:21;12.90;99.90
9466;DHT22;4771;48.726;9.006;2022-10-31T08:00:48;13.00;99.90
9466;DHT22;4771;48.726;9.006;2022-10-31T08:03:17;13.20;99.90
9466;DHT22;4771;48.726;9.006;2022-10-31T08:05:44;13.30;99.90
9466;DHT22;4771;48.726;9.006;2022-10-31T08:08:14;13.50;99.90
9466;DHT22;4771;48.726;9.006;2022-10-31T08:10:42;13.60;99.90
9466;DHT22;4771;48.726;9.006;2022-10-31T08:13:10;13.80;99.90
9466;DHT22;4771;48.726;9.006;2022-10-31T08:15:37;14.10;99.90
9466;DHT22;4771;48.726;9.006;2022-10-31T08:18:11;14.50;99.90
9466;DHT22;4771;48.726;9.006;2022-10-31T08:20:38;14.80;99.90
9466;DHT22;4771;48.726;9.006;2022-10-31T08:23:05;15.10;99.90
9466;DHT22;4771;48.726;9.006;2022-10-31T08:25:34;15.40;99.90
9466;DHT22;4771;48.726;9.006;2022-10-31T08:28:01;15.70;99.90
9466;DHT22;4771;48.726;9.006;2022-10-31T08:30:31;15.70;99.90
9466;DHT22;4771;48.726;9.006;2022-10-31T08:33:00;15.50;99.90
9466;DHT22;4771;48.726;9.006;2022-10-31T08:35:27;15.70;99.90
9466;DHT22;4771;48.726;9.006;2022-10-31T08:37:54;15.70;99.90
9466;DHT22;4771;48.726;9.006;2022-10-31T08:40:21;15.80;99.90
9466;DHT22;4771;48.726;9.006;2022-10-31T08:43:00;15.90;99.90
9466;DHT22;4771;48.726;9.006;2022-10-31T08:45:27;16.10;99.90
9466;DHT22;4771;48.726;9.006;2022-10-31T08:47:58;16.40;99.90
9466;DHT22;4771;48.726;9.006;2022-10-31T08:50:26;16.80;99.90
9466;DHT22;4771;48.726;9.006;2022-10-31T08:52:53;17.00;99.90
9466;DHT22;4771;48.726;9.006;2022-10-31T08:55:20;17.20;99.90
9466;DHT22;4771;48.726;9.006;2022-10-31T08:57:47;17.50;99.90
9466;DHT22;4771;48.726;9.006;2022-10-31T09:00:16;17.70;99.90
9466;DHT22;4771;48.726;9.006;2022-10-31T09:02:43;17.70;99.90
9466;DHT22;4771;48.726;9.006;2022-10-31T09:05:10;17.80;99.90
9466;DHT22;4771;48.726;9.006;2022-10-31T09:07:37;17.40;99.90
9466;DHT22;4771;48.726;9.006;2022-10-31T09:10:04;17.00;99.90
9466;DHT22;4771;48.726;9.006;2022-10-31T09:12:31;17.20;99.90
9466;DHT22;4771;48.726;9.006;2022-10-31T09:14:58;17.30;99.90
9466;DHT22;4771;48.726;9.006;2022-10-31T09:17:27;17.20;99.90
9466;DHT22;4771;48.726;9.006;2022-10-31T09:19:55;17.30;99.90
9466;DHT22;4771;48.726;9.006;2022-10-31T09:22:22;17.40;99.90
9466;DHT22;4771;48.726;9.006;2022-10-31T09:24:49;17.40;99.90
9466;DHT22;4771;48.726;9.006;2022-10-31T09:27:16;17.40;99.90
9466;DHT22;4771;48.726;9.006;2022-10-31T09:29:43;17.40;99.90
9466;DHT22;4771;48.726;9.006;2022-10-31T09:32:10;17.30;99.90
9466;DHT22;4771;48.726;9.006;2022-10-31T09:34:38;17.50;99.90
9466;DHT22;4771;48.726;9.006;2022-10-31T09:37:05;17.60;99.90
9466;DHT22;4771;48.726;9.006;2022-10-31T09:39:32;18.00;99.90
9466;DHT22;4771;48.726;9.006;2022-10-31T09:42:11;18.40;99.90
9466;DHT22;4771;48.726;9.006;2022-10-31T09:44:49;18.70;99.90
9466;DHT22;4771;48.726;9.006;2022-10-31T09:47:23;18.70;99.90
9466;DHT22;4771;48.726;9.006;2022-10-31T09:50:06;18.60;99.90
9466;DHT22;4771;48.726;9.006;2022-10-31T09:52:41;18.70;99.90
9466;DHT22;4771;48.726;9.006;2022-10-31T09:55:16;18.40;99.90
9466;DHT22;4771;48.726;9.006;2022-10-31T09:57:44;18.50;99.90
9466;DHT22;4771;48.726;9.006;2022-10-31T10:00:16;18.60;99.90
9466;DHT22;4771;48.726;9.006;2022-10-31T10:02:47;18.70;99.90
9466;DHT22;4771;48.726;9.006;2022-10-31T10:05:19;18.80;99.90
9466;DHT22;4771;48.726;9.006;2022-10-31T10:07:55;19.00;99.90
9466;DHT22;4771;48.726;9.006;2022-10-31T10:10:33;19.00;99.90
9466;DHT22;4771;48.726;9.006;2022-10-31T10:13:24;19.10;99.90
9466;DHT22;4771;48.726;9.006;2022-10-31T10:16:19;19.30;99.90
9466;DHT22;4771;48.726;9.006;2022-10-31T10:18:59;19.50;99.90
9466;DHT22;4771;48.726;9.006;2022-10-31T10:21:38;19.70;99.90
9466;DHT22;4771;48.726;9.006;2022-10-31T10:24:30;19.70;99.90
9466;DHT22;4771;48.726;9.006;2022-10-31T10:27:08;20.00;99.90
9466;DHT22;4771;48.726;9.006;2022-10-31T10:29:40;20.00;99.90
9466;DHT22;4771;48.726;9.006;2022-10-31T10:32:16;20.10;99.90
9466;DHT22;4771;48.726;9.006;2022-10-31T10:34:47;20.30;99.90
9466;DHT22;4771;48.726;9.006;2022-10-31T10:37:24;20.50;99.90
9466;DHT22;4771;48.726;9.006;2022-10-31T10:39:56;20.90;99.90
9466;DHT22;4771;48.726;9.006;2022-10-31T10:42:26;21.20;99.90
9466;DHT22;4771;48.726;9.006;2022-10-31T10:45:15;21.50;99.90
9466;DHT22;4771;48.726;9.006;2022-10-31T10:48:06;21.40;99.90
9466;DHT22;4771;48.726;9.006;2022-10-31T10:50:40;21.60;99.90
9466;DHT22;4771;48.726;9.006;2022-10-31T10:53:29;21.70;99.90
9466;DHT22;4771;48.726;9.006;2022-10-31T10:56:08;21.70;99.90
9466;DHT22;4771;48.726;9.006;2022-10-31T10:58:38;21.80;99.90
9466;DHT22;4771;48.726;9.006;2022-10-31T11:01:11;22.30;99.90
9466;DHT22;4771;48.726;9.006;2022-10-31T11:03:39;22.90;98.90
9466;DHT22;4771;48.726;9.006;2022-10-31T11:06:17;23.50;95.70
9466;DHT22;4771;48.726;9.006;2022-10-31T11:08:49;24.00;92.80
9466;DHT22;4771;48.726;9.006;2022-10-31T11:11:23;24.40;91.20
9466;DHT22;4771;48.726;9.006;2022-10-31T11:13:57;24.70;87.40
9466;DHT22;4771;48.726;9.006;2022-10-31T11:16:31;24.90;88.80
9466;DHT22;4771;48.726;9.006;2022-10-31T11:19:07;25.40;82.90
9466;DHT22;4771;48.726;9.006;2022-10-31T11:21:34;25.80;77.00
9466;DHT22;4771;48.726;9.006;2022-10-31T11:24:04;25.90;72.90
9466;DHT22;4771;48.726;9.006;2022-10-31T11:26:38;25.50;74.60
9466;DHT22;4771;48.726;9.006;2022-10-31T11:29:13;25.60;70.20
9466;DHT22;4771;48.726;9.006;2022-10-31T11:31:41;25.60;70.10
9466;DHT22;4771;48.726;9.006;2022-10-31T11:34:16;25.90;69.30
9466;DHT22;4771;48.726;9.006;2022-10-31T11:36:45;26.10;65.90
9466;DHT22;4771;48.726;9.006;2022-10-31T11:39:20;26.20;65.60
9466;DHT22;4771;48.726;9.006;2022-10-31T11:41:48;25.90;65.20
9466;DHT22;4771;48.726;9.006;2022-10-31T11:44:18;25.80;65.20
9466;DHT22;4771;48.726;9.006;2022-10-31T11:46:48;25.20;65.40
9466;DHT22;4771;48.726;9.006;2022-10-31T11:49:17;24.90;65.10
9466;DHT22;4771;48.726;9.006;2022-10-31T11:51:49;24.60;68.80
9466;DHT22;4771;48.726;9.006;2022-10-31T11:54:22;24.10;69.20
9466;DHT22;4771;48.726;9.006;2022-10-31T11:56:50;23.80;75.70
9466;DHT22;4771;48.726;9.006;2022-10-31T11:59:22;23.60;74.30
9466;DHT22;4771;48.726;9.006;2022-10-31T12:01:51;23.50;76.80
9466;DHT22;4771;48.726;9.006;2022-10-31T12:04:22;23.40;76.00
9466;DHT22;4771;48.726;9.006;2022-10-31T12:06:52;23.50;78.90
9466;DHT22;4771;48.726;9.006;2022-10-31T12:09:25;23.50;75.40
9466;DHT22;4771;48.726;9.006;2022-10-31T12:12:20;23.50;78.20
9466;DHT22;4771;48.726;9.006;2022-10-31T12:14:58;23.50;75.40
9466;DHT22;4771;48.726;9.006;2022-10-31T12:17:34;23.50;78.20
9466;DHT22;4771;48.726;9.006;2022-10-31T12:20:08;23.40;79.70
9466;DHT22;4771;48.726;9.006;2022-10-31T12:22:45;23.30;79.40
9466;DHT22;4771;48.726;9.006;2022-10-31T12:25:25;22.90;83.20
9466;DHT22;4771;48.726;9.006;2022-10-31T12:31:06;22.30;85.70
9466;DHT22;4771;48.726;9.006;2022-10-31T12:33:48;22.00;87.50
9466;DHT22;4771;48.726;9.006;2022-10-31T12:36:32;21.60;90.00
9466;DHT22;4771;48.726;9.006;2022-10-31T12:39:23;21.40;91.60
9466;DHT22;4771;48.726;9.006;2022-10-31T12:41:56;21.30;95.00
9466;DHT22;4771;48.726;9.006;2022-10-31T12:44:38;21.10;95.80
9466;DHT22;4771;48.726;9.006;2022-10-31T12:50:02;20.80;97.30
9466;DHT22;4771;48.726;9.006;2022-10-31T12:52:47;20.80;97.70
9466;DHT22;4771;48.726;9.006;2022-10-31T12:55:40;20.70;97.80
9466;DHT22;4771;48.726;9.006;2022-10-31T12:58:13;20.60;99.40
9466;DHT22;4771;48.726;9.006;2022-10-31T13:00:44;20.60;99.20
9466;DHT22;4771;48.726;9.006;2022-10-31T13:03:23;20.50;99.10
9466;DHT22;4771;48.726;9.006;2022-10-31T13:05:54;20.40;99.70
9466;DHT22;4771;48.726;9.006;2022-10-31T13:08:28;20.30;99.90
9466;DHT22;4771;48.726;9.006;2022-10-31T13:11:03;20.10;99.90
9466;DHT22;4771;48.726;9.006;2022-10-31T13:13:37;20.10;99.90
9466;DHT22;4771;48.726;9.006;2022-10-31T13:16:10;20.20;99.90
9466;DHT22;4771;48.726;9.006;2022-10-31T13:18:40;20.10;99.90
9466;DHT22;4771;48.726;9.006;2022-10-31T13:21:12;20.10;99.90
9466;DHT22;4771;48.726;9.006;2022-10-31T13:23:41;20.20;99.90
9466;DHT22;4771;48.726;9.006;2022-10-31T13:26:13;20.20;99.90
9466;DHT22;4771;48.726;9.006;2022-10-31T13:28:46;20.30;99.90
9466;DHT22;4771;48.726;9.006;2022-10-31T13:31:13;20.60;99.90
9466;DHT22;4771;48.726;9.006;2022-10-31T13:33:45;20.80;99.90
9466;DHT22;4771;48.726;9.006;2022-10-31T13:36:21;21.10;99.90
9466;DHT22;4771;48.726;9.006;2022-10-31T13:38:52;21.10;98.20
9466;DHT22;4771;48.726;9.006;2022-10-31T13:41:34;21.10;96.70
9466;DHT22;4771;48.726;9.006;2022-10-31T13:44:11;21.10;96.20
9466;DHT22;4771;48.726;9.006;2022-10-31T13:46:41;21.10;96.70
9466;DHT22;4771;48.726;9.006;2022-10-31T13:49:35;20.90;97.50
9466;DHT22;4771;48.726;9.006;2022-10-31T13:52:13;20.90;98.80
9466;DHT22;4771;48.726;9.006;2022-10-31T13:54:41;20.90;99.00
9466;DHT22;4771;48.726;9.006;2022-10-31T13:57:16;20.90;99.40
9466;DHT22;4771;48.726;9.006;2022-10-31T13:59:51;21.00;98.90
9466;DHT22;4771;48.726;9.006;2022-10-31T14:02:23;21.10;99.40
9466;DHT22;4771;48.726;9.006;2022-10-31T14:04:54;21.20;99.90
9466;DHT22;4771;48.726;9.006;2022-10-31T14:07:23;21.30;99.00
9466;DHT22;4771;48.726;9.006;2022-10-31T14:09:54;21.30;98.70
9466;DHT22;4771;48.726;9.006;2022-10-31T14:12:26;21.30;99.40
9466;DHT22;4771;48.726;9.006;2022-10-31T14:14:59;21.30;98.40
9466;DHT22;4771;48.726;9.006;2022-10-31T14:17:28;21.10;98.80
9466;DHT22;4771;48.726;9.006;2022-10-31T14:20:26;20.80;99.50
9466;DHT22;4771;48.726;9.006;2022-10-31T14:22:58;20.70;99.90
9466;DHT22;4771;48.726;9.006;2022-10-31T14:25:27;20.60;99.90
9466;DHT22;4771;48.726;9.006;2022-10-31T14:27:54;20.60;99.90
9466;DHT22;4771;48.726;9.006;2022-10-31T14:30:24;20.60;99.90
9466;DHT22;4771;48.726;9.006;2022-10-31T14:32:56;20.60;99.90
9466;DHT22;4771;48.726;9.006;2022-10-31T14:35:45;20.50;99.90
9466;DHT22;4771;48.726;9.006;2022-10-31T14:38:34;20.30;99.90
9466;DHT22;4771;48.726;9.006;2022-10-31T14:44:20;20.20;99.90
9466;DHT22;4771;48.726;9.006;2022-10-31T14:46:58;20.20;99.90
9466;DHT22;4771;48.726;9.006;2022-10-31T14:49:43;20.20;99.90
9466;DHT22;4771;48.726;9.006;2022-10-31T14:52:15;20.20;99.90
9466;DHT22;4771;48.726;9.006;2022-10-31T14:54:48;20.20;99.90
9466;DHT22;4771;48.726;9.006;2022-10-31T14:57:21;20.30;99.90
9466;DHT22;4771;48.726;9.006;2022-10-31T14:59:53;20.20;99.90
9466;DHT22;4771;48.726;9.006;2022-10-31T15:02:25;20.10;99.90
9466;DHT22;4771;48.726;9.006;2022-10-31T15:04:55;20.00;99.90
9466;DHT22;4771;48.726;9.006;2022-10-31T15:07:25;19.90;99.90
9466;DHT22;4771;48.726;9.006;2022-10-31T15:09:56;19.80;99.90
9466;DHT22;4771;48.726;9.006;2022-10-31T15:12:26;19.60;99.90
9466;DHT22;4771;48.726;9.006;2022-10-31T15:14:54;19.50;99.90
9466;DHT22;4771;48.726;9.006;2022-10-31T15:17:23;19.30;99.90
9466;DHT22;4771;48.726;9.006;2022-10-31T15:19:51;19.10;99.90
9466;DHT22;4771;48.726;9.006;2022-10-31T15:22:20;19.00;99.90
9466;DHT22;4771;48.726;9.006;2022-10-31T15:24:49;18.90;99.90
9466;DHT22;4771;48.726;9.006;2022-10-31T15:27:23;18.70;99.90
9466;DHT22;4771;48.726;9.006;2022-10-31T15:29:52;18.50;99.90
9466;DHT22;4771;48.726;9.006;2022-10-31T15:32:21;18.40;99.90
9466;DHT22;4771;48.726;9.006;2022-10-31T15:34:51;18.20;99.90
9466;DHT22;4771;48.726;9.006;2022-10-31T15:37:19;18.10;99.90
9466;DHT22;4771;48.726;9.006;2022-10-31T15:39:47;18.00;99.90
9466;DHT22;4771;48.726;9.006;2022-10-31T15:42:19;18.00;99.90
9466;DHT22;4771;48.726;9.006;2022-10-31T15:44:48;17.90;99.90
9466;DHT22;4771;48.726;9.006;2022-10-31T15:47:17;17.90;99.90
9466;DHT22;4771;48.726;9.006;2022-10-31T15:49:50;17.70;99.90
9466;DHT22;4771;48.726;9.006;2022-10-31T15:52:26;17.70;99.90
9466;DHT22;4771;48.726;9.006;2022-10-31T15:54:57;17.60;99.90
9466;DHT22;4771;48.726;9.006;2022-10-31T15:57:24;17.50;99.90
9466;DHT22;4771;48.726;9.006;2022-10-31T15:59:53;17.40;99.90
9466;DHT22;4771;48.726;9.006;2022-10-31T16:02:22;17.40;99.90
9466;DHT22;4771;48.726;9.006;2022-10-31T16:04:54;17.30;99.90
9466;DHT22;4771;48.726;9.006;2022-10-31T16:07:22;17.10;99.90
9466;DHT22;4771;48.726;9.006;2022-10-31T16:09:51;17.00;99.90
9466;DHT22;4771;48.726;9.006;2022-10-31T16:12:19;16.80;99.90
9466;DHT22;4771;48.726;9.006;2022-10-31T16:14:47;16.80;99.90
9466;DHT22;4771;48.726;9.006;2022-10-31T16:17:16;16.70;99.90
9466;DHT22;4771;48.726;9.006;2022-10-31T16:19:51;16.40;99.90
9466;DHT22;4771;48.726;9.006;2022-10-31T16:22:24;16.40;99.90
9466;DHT22;4771;48.726;9.006;2022-10-31T16:24:59;16.30;99.90
9466;DHT22;4771;48.726;9.006;2022-10-31T16:27:29;16.20;99.90
9466;DHT22;4771;48.726;9.006;2022-10-31T16:29:59;16.10;99.90
9466;DHT22;4771;48.726;9.006;2022-10-31T16:32:32;15.90;99.90
9466;DHT22;4771;48.726;9.006;2022-10-31T16:35:23;15.90;99.90
9466;DHT22;4771;48.726;9.006;2022-10-31T16:37:51;15.90;99.90
9466;DHT22;4771;48.726;9.006;2022-10-31T16:40:18;15.70;99.90
9466;DHT22;4771;48.726;9.006;2022-10-31T16:42:46;15.70;99.90